Time;durP1;ratioP1;P1;durP2;ratioP2;P2;SDS_P1;SDS_P2;PMS_P1;PMS_P2;Temp;Humidity;BMP_temperature;BMP_pressure;BME280_temperature;BME280_humidity;BME280_pressure;Samples;Min_cycle;Max_cycle;Signal;HPM_P1;HPM_P2
2023/01/24 00:52:42;;;;;;;19.33;14.43;;;;;;;2.53;100.00;100795.53;6247709;22;20215;-81
2023/01/24 00:55:11;;;;;;;19.60;13.50;;;;;;;2.57;100.00;100800.41;6201001;23;20208;-80
2023/01/24 00:57:37;;;;;;;20.77;15.07;;;;;;;2.50;100.00;100801.13;6225888;23;20712;-80
2023/01/24 01:00:04;;;;;;;20.10;14.97;;;;;;;2.54;100.00;100795.41;6201160;23;20260;-80
2023/01/24 01:02:31;;;;;;;21.00;14.43;;;;;;;2.67;100.00;100788.00;6252829;23;20211;-80
2023/01/24 01:04:58;;;;;;;22.93;15.00;;;;;;;2.69;100.00;100793.16;6253579;23;20210;-80
2023/01/24 01:07:25;;;;;;;21.73;15.30;;;;;;;2.67;100.00;100790.66;6253795;23;20232;-81
2023/01/24 01:09:51;;;;;;;20.77;14.60;;;;;;;2.58;100.00;100786.22;6253292;23;20283;-80
2023/01/24 01:12:18;;;;;;;23.10;16.43;;;;;;;2.53;100.00;100787.59;6226447;23;20228;-80
2023/01/24 01:14:45;;;;;;;21.47;15.40;;;;;;;2.41;100.00;100791.38;6253446;23;20213;-80
2023/01/24 01:17:11;;;;;;;20.67;15.40;;;;;;;2.43;100.00;100792.88;6252954;23;20280;-80
2023/01/24 01:19:38;;;;;;;21.10;16.70;;;;;;;2.52;100.00;100794.69;6225929;23;20259;-80
2023/01/24 01:22:05;;;;;;;20.00;15.10;;;;;;;2.55;100.00;100802.38;6226935;23;20209;-79
2023/01/24 01:24:32;;;;;;;21.37;14.67;;;;;;;2.51;100.00;100806.28;6257127;23;20201;-82
2023/01/24 01:26:59;;;;;;;18.40;13.93;;;;;;;2.48;100.00;100808.34;6233913;23;20204;-80
2023/01/24 01:29:29;;;;;;;17.63;14.03;;;;;;;2.55;100.00;100820.91;6212092;23;20215;-81
2023/01/24 01:31:56;;;;;;;19.83;15.03;;;;;;;2.37;100.00;100811.97;6238237;23;20211;-81
2023/01/24 01:34:24;;;;;;;20.00;14.33;;;;;;;2.57;100.00;100812.78;6260006;23;20223;-81
2023/01/24 01:36:52;;;;;;;19.23;14.90;;;;;;;2.59;100.00;100822.28;6206756;23;20216;-81
2023/01/24 01:39:19;;;;;;;19.40;15.07;;;;;;;2.58;100.00;100814.47;6233920;23;20262;-80
2023/01/24 01:41:46;;;;;;;19.97;14.30;;;;;;;2.56;100.00;100808.50;6235849;23;20189;-82
2023/01/24 01:44:40;;;;;;;17.50;14.17;;;;;;;2.52;100.00;100812.41;6205232;23;20749;-80
2023/01/24 01:47:18;;;;;;;20.13;14.33;;;;;;;2.57;100.00;100820.72;6229835;23;20279;-80
2023/01/24 01:49:57;;;;;;;19.57;14.00;;;;;;;2.51;100.00;100818.66;6229328;23;20212;-80
2023/01/24 01:52:30;;;;;;;18.80;14.13;;;;;;;2.50;100.00;100819.63;6230784;23;20279;-81
2023/01/24 01:55:01;;;;;;;18.60;13.67;;;;;;;2.57;100.00;100826.03;6182762;23;20208;-80
2023/01/24 01:57:30;;;;;;;18.87;13.63;;;;;;;2.53;100.00;100811.41;6257988;23;20217;-81
2023/01/24 02:00:02;;;;;;;19.80;13.87;;;;;;;2.42;100.00;100808.91;6233171;23;20212;-80
2023/01/24 02:02:38;;;;;;;19.30;14.07;;;;;;;2.51;100.00;100819.50;6235030;23;20205;-81
2023/01/24 02:05:07;;;;;;;17.27;13.57;;;;;;;2.59;100.00;100814.34;6260432;23;20279;-80
2023/01/24 02:07:45;;;;;;;21.37;14.33;;;;;;;2.64;100.00;100816.56;6210620;23;20207;-81
2023/01/24 02:10:16;;;;;;;20.00;13.83;;;;;;;2.34;100.00;100822.81;6235146;23;20212;-80
2023/01/24 02:12:45;;;;;;;17.97;14.07;;;;;;;2.34;100.00;100817.53;6188149;23;20192;-81
2023/01/24 02:18:06;;;;;;;20.47;14.27;;;;;;;2.43;100.00;100827.28;6239576;23;20271;-80
2023/01/24 02:20:45;;;;;;;19.07;13.97;;;;;;;2.41;100.00;100834.53;6237418;23;20201;-80
2023/01/24 02:23:50;;;;;;;20.03;14.33;;;;;;;2.37;100.00;100834.94;6187460;23;20231;-80
2023/01/24 02:26:20;;;;;;;18.07;13.83;;;;;;;2.38;100.00;100829.50;6230953;23;20227;-80
2023/01/24 02:29:02;;;;;;;19.87;13.97;;;;;;;2.42;100.00;100824.78;6212800;23;20213;-81
2023/01/24 02:31:54;;;;;;;19.00;13.87;;;;;;;2.45;100.00;100827.16;6217039;23;20256;-82
2023/01/24 03:09:33;;;;;;;19.20;13.97;;;;;;;2.40;100.00;100835.50;6231433;22;20232;-79
2023/01/24 03:34:29;;;;;;;18.53;13.80;;;;;;;2.46;100.00;100842.91;6225836;23;20209;-79
2023/01/24 03:36:56;;;;;;;18.70;13.33;;;;;;;2.31;100.00;100840.78;6202827;23;20196;-80
2023/01/24 03:42:49;;;;;;;17.83;13.90;;;;;;;2.39;100.00;100860.28;6219310;23;20244;-81
2023/01/24 03:45:25;;;;;;;17.43;13.37;;;;;;;2.40;100.00;100864.59;6218922;23;20193;-82
2023/01/24 03:47:59;;;;;;;19.00;13.30;;;;;;;2.48;100.00;100861.25;6188366;23;20197;-81
2023/01/24 03:53:36;;;;;;;18.53;13.70;;;;;;;2.36;100.00;100857.91;6219061;23;20177;-82
2023/01/24 03:56:05;;;;;;;18.67;13.10;;;;;;;2.39;100.00;100851.50;6189130;23;20198;-80
2023/01/24 03:58:41;;;;;;;18.20;13.83;;;;;;;2.41;100.00;100860.16;6219720;23;20209;-81
2023/01/24 04:01:11;;;;;;;16.90;13.80;;;;;;;2.39;100.00;100857.63;6214288;23;20201;-80
2023/01/24 04:04:05;;;;;;;17.23;13.63;;;;;;;2.33;100.00;100860.84;6212615;23;20209;-80
2023/01/24 04:06:34;;;;;;;17.93;14.00;;;;;;;2.39;100.00;100859.44;6211040;23;20256;-80
2023/01/24 04:09:05;;;;;;;19.27;14.23;;;;;;;2.37;100.00;100862.25;6235419;23;20185;-80
2023/01/24 04:11:37;;;;;;;18.77;14.50;;;;;;;2.35;100.00;100858.03;6209126;23;20205;-80
2023/01/24 04:14:11;;;;;;;18.57;13.93;;;;;;;2.33;100.00;100844.97;6209170;23;20268;-79
2023/01/24 04:17:03;;;;;;;20.50;14.13;;;;;;;2.39;100.00;100868.22;6209210;23;20260;-81
2023/01/24 04:19:39;;;;;;;19.73;13.33;;;;;;;2.39;100.00;100854.97;6212814;23;20215;-79
2023/01/24 04:22:08;;;;;;;19.83;14.67;;;;;;;2.37;100.00;100864.88;6209230;23;20262;-79
2023/01/24 04:24:37;;;;;;;19.30;14.40;;;;;;;2.46;100.00;100850.00;6184870;23;20216;-80
2023/01/24 04:27:05;;;;;;;18.00;13.77;;;;;;;2.35;100.00;100855.38;6184772;23;20232;-80
2023/01/24 04:29:45;;;;;;;16.80;13.70;;;;;;;2.32;100.00;100848.59;6233885;23;20268;-79
2023/01/24 04:32:13;;;;;;;17.77;13.97;;;;;;;2.28;100.00;100862.22;6184164;23;20662;-79
2023/01/24 04:34:55;;;;;;;17.93;14.03;;;;;;;2.33;100.00;100860.84;6208425;23;20206;-80
2023/01/24 04:37:40;;;;;;;19.53;13.90;;;;;;;2.37;100.00;100861.41;6187037;23;20216;-80
2023/01/24 04:40:09;;;;;;;19.33;14.10;;;;;;;2.35;100.00;100852.75;6205401;23;20223;-80
2023/01/24 04:42:40;;;;;;;18.07;13.93;;;;;;;2.32;100.00;100853.03;6181428;23;20208;-80
2023/01/24 04:45:09;;;;;;;19.43;14.07;;;;;;;2.31;100.00;100861.94;6233320;23;20232;-80
2023/01/24 04:47:37;;;;;;;18.50;14.07;;;;;;;2.36;100.00;100865.00;6206732;23;20259;-80
2023/01/24 04:50:10;;;;;;;21.70;14.83;;;;;;;2.36;100.00;100863.19;6232374;23;20232;-79
2023/01/24 04:52:39;;;;;;;18.53;13.90;;;;;;;2.43;100.00;100866.13;6207431;23;20655;-79
2023/01/24 04:55:09;;;;;;;20.37;14.47;;;;;;;2.30;100.00;100870.84;6199978;23;20693;-79
2023/01/24 04:57:37;;;;;;;20.27;14.73;;;;;;;2.28;100.00;100878.91;6221537;23;20205;-78
2023/01/24 05:00:04;;;;;;;21.70;16.00;;;;;;;2.32;100.00;100885.59;6196750;23;20220;-78
2023/01/24 05:02:32;;;;;;;20.50;15.23;;;;;;;2.32;100.00;100882.13;6220265;23;20224;-79
2023/01/24 05:05:00;;;;;;;19.00;14.63;;;;;;;2.44;100.00;100896.88;6195538;23;20216;-79
2023/01/24 05:07:26;;;;;;;19.93;15.23;;;;;;;2.33;100.00;100875.88;6222012;23;20531;-79
2023/01/24 05:10:03;;;;;;;20.40;15.00;;;;;;;2.38;100.00;100885.03;6215929;23;20289;-78
2023/01/24 05:12:30;;;;;;;20.63;15.07;;;;;;;2.29;100.00;100891.16;6192290;23;20745;-78
2023/01/24 05:15:04;;;;;;;20.97;15.50;;;;;;;2.30;100.00;100887.53;6216178;23;20221;-80
2023/01/24 05:17:31;;;;;;;21.43;15.73;;;;;;;2.23;100.00;100889.06;6165663;23;20209;-79
2023/01/24 05:20:04;;;;;;;19.37;14.87;;;;;;;2.27;100.00;100889.63;6192204;23;20584;-79
2023/01/24 05:22:31;;;;;;;21.93;15.33;;;;;;;2.44;100.00;100888.94;6220848;23;20547;-80
2023/01/24 05:24:58;;;;;;;20.27;14.70;;;;;;;2.19;100.00;100882.38;6207250;23;20201;-79
2023/01/24 05:27:25;;;;;;;22.20;15.27;;;;;;;2.27;100.00;100890.47;6194780;23;20210;-80
2023/01/24 05:29:57;;;;;;;21.47;15.83;;;;;;;2.13;100.00;100885.56;6223645;23;20220;-79
2023/01/24 05:32:26;;;;;;;22.90;16.10;;;;;;;2.23;100.00;100886.44;6174890;23;20659;-80
2023/01/24 05:34:53;;;;;;;21.30;14.97;;;;;;;2.39;100.00;100885.88;6224474;23;20213;-82
2023/01/24 05:37:20;;;;;;;21.63;14.93;;;;;;;2.32;100.00;100895.34;6200764;23;20206;-80
2023/01/24 05:39:47;;;;;;;20.83;15.07;;;;;;;2.26;100.00;100893.22;6174801;23;20241;-79
2023/01/24 05:42:22;;;;;;;20.43;14.83;;;;;;;2.18;100.00;100893.94;6176090;23;20202;-80
2023/01/24 05:44:50;;;;;;;21.23;14.17;;;;;;;2.20;100.00;100902.53;6223917;23;20245;-79
2023/01/24 05:47:17;;;;;;;21.73;15.20;;;;;;;2.25;100.00;100900.34;6200167;23;20241;-80
2023/01/24 05:49:46;;;;;;;20.37;14.57;;;;;;;2.31;100.00;100902.44;6224660;23;20210;-79
2023/01/24 05:52:18;;;;;;;20.50;14.60;;;;;;;2.19;100.00;100896.41;6224564;23;20214;-80
2023/01/24 05:54:52;;;;;;;19.93;14.50;;;;;;;2.28;100.00;100904.53;6176185;23;20220;-80
2023/01/24 05:57:24;;;;;;;19.30;14.40;;;;;;;2.25;100.00;100907.41;6199274;23;20216;-80
2023/01/24 06:00:10;;;;;;;18.63;14.10;;;;;;;2.18;100.00;100912.44;6199800;23;20220;-79
2023/01/24 06:03:03;;;;;;;21.30;14.87;;;;;;;2.34;100.00;100917.19;6194746;23;20205;-79
2023/01/24 06:05:30;;;;;;;20.23;15.10;;;;;;;2.15;100.00;100910.03;6151306;23;20206;-80
2023/01/24 06:07:57;;;;;;;20.70;15.00;;;;;;;2.27;100.00;100916.91;6201419;23;20266;-80
2023/01/24 06:10:28;;;;;;;22.40;14.77;;;;;;;2.30;100.00;100907.84;6223866;23;20210;-79
2023/01/24 06:13:02;;;;;;;21.07;14.70;;;;;;;2.20;100.00;100905.19;6200299;23;20233;-79
2023/01/24 06:15:32;;;;;;;20.00;14.97;;;;;;;2.30;100.00;100921.91;6200373;23;20214;-80
2023/01/24 06:18:00;;;;;;;19.47;13.87;;;;;;;2.31;100.00;100914.81;6176254;23;20205;-79
2023/01/24 06:20:28;;;;;;;23.00;15.60;;;;;;;2.22;100.00;100919.13;6173873;23;20206;-80
2023/01/24 06:23:03;;;;;;;19.70;14.50;;;;;;;2.16;100.00;100931.06;6175004;23;20214;-80
2023/01/24 06:25:32;;;;;;;22.00;15.30;;;;;;;2.22;100.00;100933.19;6226635;23;20198;-80
2023/01/24 06:28:00;;;;;;;20.67;14.97;;;;;;;2.23;100.00;100934.03;6226129;23;20237;-79
2023/01/24 06:30:27;;;;;;;22.70;15.67;;;;;;;2.22;100.00;100933.19;6174092;23;20212;-81
2023/01/24 06:33:10;;;;;;;21.30;14.87;;;;;;;2.20;100.00;100928.97;6198815;23;20210;-79
2023/01/24 06:35:43;;;;;;;21.70;15.10;;;;;;;2.24;100.00;100934.88;6199963;23;20209;-80
2023/01/24 06:38:22;;;;;;;21.07;15.37;;;;;;;2.26;100.00;100943.47;6199206;23;20206;-79
2023/01/24 06:41:00;;;;;;;20.37;14.90;;;;;;;2.23;100.00;100955.19;6199206;23;20436;-79
2023/01/24 06:43:28;;;;;;;22.33;15.13;;;;;;;2.30;100.00;100956.31;6173670;23;20209;-80
2023/01/24 06:46:02;;;;;;;22.07;14.77;;;;;;;2.22;100.00;100962.28;6198757;23;20240;-78
2023/01/24 06:48:29;;;;;;;21.03;14.67;;;;;;;2.35;100.00;100958.53;6200789;23;20227;-79
2023/01/24 06:50:56;;;;;;;22.37;15.70;;;;;;;2.44;100.00;100968.31;6150696;23;20210;-80
2023/01/24 06:53:23;;;;;;;24.33;16.07;;;;;;;2.33;100.00;100968.44;6202559;23;20206;-80
2023/01/24 06:55:50;;;;;;;21.70;14.97;;;;;;;2.34;100.00;100968.28;6174202;23;20205;-79
2023/01/24 06:58:17;;;;;;;23.20;15.80;;;;;;;2.40;100.00;100975.69;6198603;23;20214;-79
2023/01/24 07:00:44;;;;;;;21.40;15.80;;;;;;;2.34;100.00;100967.44;6153270;23;20214;-80
2023/01/24 07:03:11;;;;;;;22.07;15.60;;;;;;;2.32;100.00;100967.59;6203075;23;20209;-80
2023/01/24 07:10:13;;;;;;;23.10;16.63;;;;;;;2.35;100.00;100975.25;6203211;23;20672;-82
2023/01/24 07:12:42;;;;;;;25.23;18.00;;;;;;;2.50;100.00;100979.19;6208754;23;20193;-79
2023/01/24 07:15:10;;;;;;;32.50;23.03;;;;;;;2.29;100.00;100980.25;6233462;23;20212;-80
2023/01/24 07:17:38;;;;;;;27.30;20.27;;;;;;;2.36;100.00;100976.94;6183299;23;20213;-80
2023/01/24 07:20:06;;;;;;;24.83;16.87;;;;;;;2.51;100.00;100994.13;6207387;23;20209;-80
2023/01/24 07:23:25;;;;;;;25.93;17.73;;;;;;;2.51;100.00;100994.13;6183602;23;20200;-80
2023/01/24 07:25:52;;;;;;;25.00;18.27;;;;;;;2.58;100.00;100992.59;6233783;23;20205;-79
2023/01/24 07:28:19;;;;;;;23.50;17.20;;;;;;;2.48;100.00;100989.06;6231863;23;20205;-79
2023/01/24 07:30:48;;;;;;;22.83;16.50;;;;;;;2.70;100.00;100995.97;6234236;23;20211;-81
2023/01/24 07:33:18;;;;;;;25.73;17.80;;;;;;;2.62;100.00;100995.78;6210736;23;20205;-79
2023/01/24 07:35:45;;;;;;;27.60;17.13;;;;;;;2.71;100.00;101008.22;6208214;23;20213;-80
2023/01/24 07:38:12;;;;;;;24.63;17.37;;;;;;;2.87;100.00;101011.19;6158092;23;20205;-80
2023/01/24 07:40:39;;;;;;;25.20;17.37;;;;;;;2.90;100.00;101018.84;6208654;23;20205;-80
2023/01/24 07:43:06;;;;;;;26.60;18.07;;;;;;;2.96;100.00;101017.47;6171957;23;20721;-79
2023/01/24 07:45:35;;;;;;;25.27;17.20;;;;;;;3.02;100.00;101016.91;6229428;23;20265;-80
2023/01/24 07:48:02;;;;;;;24.67;16.87;;;;;;;3.00;100.00;101010.91;6178706;23;20209;-79
2023/01/24 07:50:32;;;;;;;24.87;17.13;;;;;;;3.02;100.00;101025.72;6231788;23;20208;-80
2023/01/24 07:52:59;;;;;;;21.93;16.50;;;;;;;2.78;100.00;101016.44;6205541;23;20265;-81
2023/01/24 07:55:26;;;;;;;24.27;15.83;;;;;;;2.96;100.00;101028.06;6180299;23;20213;-81
2023/01/24 07:57:58;;;;;;;24.60;16.23;;;;;;;2.88;100.00;101026.09;6179670;23;20236;-80
2023/01/24 08:00:25;;;;;;;25.90;17.20;;;;;;;2.93;100.00;101026.53;6229830;23;20193;-80
2023/01/24 08:02:52;;;;;;;26.37;17.10;;;;;;;2.94;100.00;101024.72;6228576;23;20235;-80
2023/01/24 08:05:19;;;;;;;26.27;17.10;;;;;;;2.99;100.00;101035.72;6204148;23;20209;-80
2023/01/24 08:07:46;;;;;;;28.80;18.07;;;;;;;2.94;100.00;101030.81;6178879;23;20240;-80
2023/01/24 08:10:13;;;;;;;26.50;17.87;;;;;;;3.02;100.00;101032.81;6173367;23;20209;-79
2023/01/24 08:12:40;;;;;;;25.70;17.07;;;;;;;3.08;100.00;101029.59;6200233;23;20228;-80
2023/01/24 08:15:08;;;;;;;25.93;17.50;;;;;;;2.80;100.00;101028.56;6173298;23;20206;-80
2023/01/24 08:17:36;;;;;;;23.83;16.87;;;;;;;2.98;100.00;101036.72;6197809;23;20210;-80
2023/01/24 08:20:04;;;;;;;25.73;17.43;;;;;;;3.03;100.00;101043.25;6197747;23;20220;-79
2023/01/24 08:22:31;;;;;;;26.60;17.53;;;;;;;2.96;100.00;101038.63;6197801;23;20567;-79
2023/01/24 08:24:57;;;;;;;25.93;17.33;;;;;;;2.94;100.00;101041.41;6199173;23;20269;-79
2023/01/24 08:27:25;;;;;;;27.87;17.87;;;;;;;2.90;100.00;101042.66;6198729;23;20225;-80
2023/01/24 08:29:51;;;;;;;26.87;18.33;;;;;;;3.02;100.00;101046.03;6198707;23;20212;-80
2023/01/24 08:32:18;;;;;;;25.37;17.13;;;;;;;2.86;100.00;101041.25;6173082;23;20210;-80
2023/01/24 08:34:45;;;;;;;28.93;18.40;;;;;;;3.01;100.00;101049.66;6189569;23;20268;-78
2023/01/24 08:37:12;;;;;;;27.87;17.67;;;;;;;3.02;100.00;101056.63;6184789;23;20209;-78
2023/01/24 08:39:39;;;;;;;26.93;18.10;;;;;;;2.94;100.00;101059.13;6183164;23;20285;-78
2023/01/24 08:42:06;;;;;;;25.23;16.90;;;;;;;2.91;100.00;101049.63;6194421;23;20257;-80
2023/01/24 08:44:32;;;;;;;29.90;17.90;;;;;;;2.81;100.00;101055.88;6202734;23;20215;-80
2023/01/24 08:46:59;;;;;;;25.57;16.87;;;;;;;2.90;100.00;101055.06;6202566;23;20698;-80
2023/01/24 08:49:25;;;;;;;28.20;17.07;;;;;;;2.75;100.00;101051.13;6201033;23;20277;-81
2023/01/24 08:51:58;;;;;;;27.90;17.17;;;;;;;2.72;100.00;101062.81;6201843;23;20182;-80
2023/01/24 08:54:27;;;;;;;26.47;17.50;;;;;;;2.90;100.00;101057.72;6173522;23;20261;-80
2023/01/24 08:56:53;;;;;;;27.17;16.40;;;;;;;2.97;100.00;101051.75;6193609;23;20265;-80
2023/01/24 08:59:20;;;;;;;28.03;17.43;;;;;;;2.93;100.00;101060.94;6197553;23;20540;-80
2023/01/24 09:01:47;;;;;;;25.63;16.50;;;;;;;2.86;100.00;101065.09;6200209;23;20210;-80
2023/01/24 09:04:14;;;;;;;29.70;18.93;;;;;;;2.90;100.00;101066.50;6217024;23;20210;-80
2023/01/24 09:06:40;;;;;;;29.30;18.73;;;;;;;2.84;100.00;101072.34;6192266;23;20257;-80
2023/01/24 09:09:07;;;;;;;25.77;17.43;;;;;;;2.96;100.00;101078.34;6199662;23;20206;-80
2023/01/24 09:11:34;;;;;;;27.40;17.83;;;;;;;2.98;100.00;101071.97;6230336;23;20741;-80
2023/01/24 09:14:01;;;;;;;29.43;18.03;;;;;;;2.92;100.00;101076.97;6229407;23;20206;-79
2023/01/24 09:16:27;;;;;;;30.30;18.60;;;;;;;2.93;100.00;101076.84;6230387;23;20251;-81
2023/01/24 09:18:55;;;;;;;30.43;18.80;;;;;;;2.93;100.00;101078.63;6204872;23;20214;-80
2023/01/24 09:21:22;;;;;;;27.80;17.40;;;;;;;2.99;100.00;101080.72;6205773;23;20281;-79
2023/01/24 09:23:48;;;;;;;28.77;17.97;;;;;;;3.05;100.00;101086.31;6204836;23;20213;-80
2023/01/24 09:26:15;;;;;;;28.33;18.30;;;;;;;3.08;100.00;101101.09;6204493;23;20209;-80
2023/01/24 09:28:42;;;;;;;29.60;18.73;;;;;;;2.96;100.00;101089.78;6204895;23;20205;-80
2023/01/24 09:31:12;;;;;;;29.30;19.23;;;;;;;2.93;100.00;101100.66;6207362;23;20212;-80
2023/01/24 09:33:39;;;;;;;28.10;18.67;;;;;;;3.01;100.00;101100.81;6182317;23;20213;-80
2023/01/24 09:36:23;;;;;;;30.10;18.03;;;;;;;3.07;100.00;101102.94;6185412;23;20205;-81
2023/01/24 09:38:50;;;;;;;30.23;19.07;;;;;;;3.12;100.00;101105.16;6206073;23;20197;-80
2023/01/24 09:42:09;;;;;;;29.40;17.73;;;;;;;3.09;100.00;101105.41;6161923;23;20205;-80
2023/01/24 09:45:03;;;;;;;29.60;17.63;;;;;;;3.04;100.00;101111.13;6230655;23;20205;-80
2023/01/24 09:47:56;;;;;;;27.53;17.43;;;;;;;2.99;100.00;101108.03;6204811;23;20205;-80
2023/01/24 09:50:37;;;;;;;27.70;18.10;;;;;;;2.89;100.00;101111.66;6229746;23;20228;-80
2023/01/24 09:53:04;;;;;;;29.83;19.23;;;;;;;2.96;100.00;101103.03;6180959;23;20216;-80
2023/01/24 09:55:34;;;;;;;26.40;18.37;;;;;;;2.89;100.00;101090.47;6156076;23;20220;-80
2023/01/24 09:58:01;;;;;;;31.00;18.77;;;;;;;2.97;100.00;101104.69;6204896;23;20265;-78
2023/01/24 10:00:30;;;;;;;28.03;19.37;;;;;;;2.79;100.00;101092.25;6232443;23;20237;-80
2023/01/24 10:02:59;;;;;;;27.50;18.37;;;;;;;2.83;100.00;101093.66;6180509;23;20235;-80
2023/01/24 10:05:35;;;;;;;28.87;17.93;;;;;;;2.78;100.00;101091.41;6203676;23;20206;-80
2023/01/24 10:08:04;;;;;;;27.67;18.10;;;;;;;2.71;100.00;101092.09;6177112;23;20256;-79
2023/01/24 10:10:49;;;;;;;28.67;17.90;;;;;;;2.92;100.00;101093.69;6181891;23;20213;-80
2023/01/24 10:13:34;;;;;;;28.00;17.87;;;;;;;2.83;100.00;101078.59;6167154;23;20238;-79
2023/01/24 10:16:26;;;;;;;28.47;17.87;;;;;;;2.76;100.00;101088.03;6168769;23;20216;-79
2023/01/24 10:18:53;;;;;;;28.00;17.97;;;;;;;2.83;100.00;101094.50;6168298;23;20210;-79
2023/01/24 10:21:27;;;;;;;27.47;16.77;;;;;;;2.96;100.00;101083.66;6168637;23;20223;-80
2023/01/24 10:24:01;;;;;;;28.00;18.67;;;;;;;2.94;100.00;101083.78;6168656;23;20638;-80
2023/01/24 10:26:42;;;;;;;30.07;18.77;;;;;;;2.95;100.00;101087.25;6143204;23;20202;-80
2023/01/24 10:29:13;;;;;;;29.43;18.70;;;;;;;2.94;100.00;101088.25;6176644;23;20230;-80
2023/01/24 10:31:44;;;;;;;29.60;18.47;;;;;;;2.86;100.00;101082.78;6155546;23;20195;-81
2023/01/24 10:34:23;;;;;;;30.70;18.60;;;;;;;2.98;100.00;101077.25;6180289;23;20206;-81
2023/01/24 10:36:57;;;;;;;31.23;18.80;;;;;;;3.00;100.00;101090.34;6179604;23;20221;-81
2023/01/24 10:39:27;;;;;;;29.77;18.97;;;;;;;2.78;100.00;101082.63;6180002;23;20206;-81
2023/01/24 10:41:54;;;;;;;28.13;19.30;;;;;;;2.82;100.00;101082.22;6155452;23;20210;-81
2023/01/24 10:44:29;;;;;;;27.33;17.73;;;;;;;2.99;100.00;101075.41;6179418;23;20218;-81
2023/01/24 10:47:09;;;;;;;29.27;18.83;;;;;;;3.04;100.00;101084.63;6155522;23;20214;-81
2023/01/24 10:49:40;;;;;;;30.50;18.57;;;;;;;3.14;100.00;101076.72;6180035;23;20241;-81
2023/01/24 10:52:18;;;;;;;27.93;18.40;;;;;;;3.06;100.00;101076.56;6151823;23;20644;-81
2023/01/24 10:54:53;;;;;;;31.20;19.20;;;;;;;2.92;100.00;101079.59;6181428;23;20234;-81
2023/01/24 10:57:36;;;;;;;30.50;18.13;;;;;;;2.98;100.00;101076.41;6180409;23;20257;-81
2023/01/24 11:00:33;;;;;;;28.40;18.77;;;;;;;2.99;100.00;101070.13;6180187;23;20191;-81
2023/01/24 11:03:16;;;;;;;29.47;18.50;;;;;;;2.86;100.00;101065.09;6179638;23;20241;-81
2023/01/24 11:05:49;;;;;;;28.33;18.90;;;;;;;2.94;100.00;101067.09;6179686;23;20245;-81
2023/01/24 11:08:41;;;;;;;26.73;17.57;;;;;;;3.06;100.00;101058.03;6179553;23;20206;-80
2023/01/24 11:11:33;;;;;;;29.00;18.90;;;;;;;3.02;100.00;101049.53;6199085;23;20206;-82
2023/01/24 11:14:04;;;;;;;29.77;18.83;;;;;;;3.20;100.00;101048.84;6208572;23;20206;-80
2023/01/24 11:16:43;;;;;;;28.70;19.17;;;;;;;3.19;100.00;101042.72;6137738;23;20213;-81
2023/01/24 11:19:33;;;;;;;29.10;18.60;;;;;;;3.17;100.00;101046.50;6147731;23;20205;-82
2023/01/24 11:22:34;;;;;;;28.63;18.33;;;;;;;3.24;100.00;101048.44;6203593;23;20221;-80
2023/01/24 11:25:13;;;;;;;26.87;17.47;;;;;;;3.27;100.00;101037.56;6185422;23;20193;-81
2023/01/24 11:27:51;;;;;;;28.07;17.97;;;;;;;3.29;100.00;101029.47;6203609;23;20230;-81
2023/01/24 11:30:34;;;;;;;28.10;18.27;;;;;;;3.29;100.00;101032.97;6199677;23;20205;-81
2023/01/24 11:33:24;;;;;;;27.93;18.63;;;;;;;3.36;100.00;101030.63;6209757;23;20197;-81
2023/01/24 11:36:02;;;;;;;29.30;18.07;;;;;;;3.11;100.00;101029.34;6186933;23;20205;-81
2023/01/24 11:38:36;;;;;;;25.67;16.67;;;;;;;3.22;100.00;101026.53;6171276;23;20182;-81
2023/01/24 11:41:15;;;;;;;27.37;18.07;;;;;;;3.24;100.00;101024.59;6184709;23;20210;-82
2023/01/24 11:44:27;;;;;;;25.90;17.33;;;;;;;3.28;100.00;101018.03;6210995;23;20233;-81
2023/01/24 11:47:08;;;;;;;28.70;17.63;;;;;;;3.27;100.00;101011.06;6184557;23;20198;-80
2023/01/24 11:49:48;;;;;;;24.00;16.20;;;;;;;3.16;100.00;101019.16;6187649;23;20194;-82
2023/01/24 11:52:34;;;;;;;26.43;16.67;;;;;;;3.21;100.00;101018.75;6212065;23;20221;-80
2023/01/24 11:55:20;;;;;;;25.67;16.33;;;;;;;3.14;100.00;101015.81;6212099;23;20194;-81
2023/01/24 11:58:10;;;;;;;26.53;16.53;;;;;;;3.06;100.00;101020.97;6213162;23;20197;-81
2023/01/24 12:00:44;;;;;;;25.30;17.00;;;;;;;3.01;100.00;101025.84;6187901;23;20206;-80
2023/01/24 12:04:14;;;;;;;25.23;17.53;;;;;;;2.97;100.00;101021.78;6212914;23;20224;-81
2023/01/24 12:06:44;;;;;;;25.63;16.90;;;;;;;3.02;100.00;101031.00;6231339;23;20185;-81
2023/01/24 12:09:22;;;;;;;25.10;16.27;;;;;;;3.22;100.00;101023.88;6212395;23;20226;-81
2023/01/24 12:12:02;;;;;;;25.37;16.80;;;;;;;3.11;100.00;101018.75;6211462;23;20257;-81
2023/01/24 12:14:54;;;;;;;24.57;17.00;;;;;;;3.09;100.00;101016.22;6172286;23;20639;-81
2023/01/24 12:17:49;;;;;;;23.70;16.67;;;;;;;3.16;100.00;101002.44;6236381;23;20194;-81
2023/01/24 12:20:44;;;;;;;24.77;16.70;;;;;;;3.13;100.00;101008.84;6211151;23;20222;-80
2023/01/24 12:23:32;;;;;;;24.67;16.53;;;;;;;3.12;100.00;101020.41;6213136;23;20245;-81
2023/01/24 12:26:28;;;;;;;26.60;16.90;;;;;;;3.05;100.00;101014.00;6212353;23;20198;-79
2023/01/24 12:29:05;;;;;;;23.60;16.27;;;;;;;2.94;100.00;101017.59;6213021;23;20746;-80
2023/01/24 12:32:07;;;;;;;23.87;16.87;;;;;;;2.92;100.00;101000.19;6211387;23;20261;-82
2023/01/24 12:34:56;;;;;;;25.40;17.40;;;;;;;2.99;100.00;101010.06;6194283;23;20202;-81
2023/01/24 12:37:45;;;;;;;23.30;16.47;;;;;;;2.99;100.00;101007.44;6205049;23;20220;-81
2023/01/24 12:40:24;;;;;;;24.50;16.70;;;;;;;3.02;100.00;101016.91;6206577;23;20205;-81
2023/01/24 12:43:16;;;;;;;24.63;16.27;;;;;;;3.05;100.00;101011.34;6208710;23;20206;-81
2023/01/24 12:45:57;;;;;;;24.03;17.80;;;;;;;3.03;100.00;101010.66;6202383;23;20210;-82
2023/01/24 12:48:53;;;;;;;25.80;16.90;;;;;;;3.05;100.00;101012.19;6191157;23;20190;-81
2023/01/24 12:52:08;;;;;;;23.30;15.67;;;;;;;3.05;100.00;101012.19;6236276;23;20197;-81
2023/01/24 12:55:02;;;;;;;22.50;15.87;;;;;;;2.99;100.00;101002.13;6150948;23;20201;-81
2023/01/24 12:57:38;;;;;;;23.07;16.70;;;;;;;2.92;100.00;100994.88;6210492;23;20194;-81
2023/01/24 13:00:20;;;;;;;21.37;15.47;;;;;;;2.95;100.00;100986.66;6209377;23;20264;-79
2023/01/24 13:03:07;;;;;;;22.77;15.43;;;;;;;3.04;100.00;100991.97;6162501;23;20190;-81
2023/01/24 13:06:06;;;;;;;21.73;15.40;;;;;;;3.05;100.00;100990.16;6209588;23;20240;-81
2023/01/24 13:09:09;;;;;;;24.50;18.13;;;;;;;2.91;100.00;100986.09;6210566;23;20206;-81
2023/01/24 13:11:45;;;;;;;23.00;15.93;;;;;;;2.89;100.00;100995.97;6172524;23;20186;-81
2023/01/24 13:14:44;;;;;;;24.63;16.93;;;;;;;3.02;100.00;100993.94;6170893;23;20210;-81
2023/01/24 13:21:24;;;;;;;24.77;16.87;;;;;;;2.89;100.00;101000.47;6180983;23;20202;-81
2023/01/24 13:24:27;;;;;;;25.03;15.50;;;;;;;2.88;100.00;101001.44;6182099;23;20207;-81
2023/01/24 13:27:23;;;;;;;20.00;14.80;;;;;;;3.00;100.00;100993.22;6181364;23;20200;-81
2023/01/24 14:03:36;;;;;;;18.27;13.43;;;;;;;2.95;100.00;101029.84;6204886;22;20260;-80
2023/01/24 14:06:05;;;;;;;19.80;14.23;;;;;;;2.85;100.00;101021.06;6167914;23;20674;-80
2023/01/24 14:08:40;;;;;;;20.17;14.20;;;;;;;2.94;100.00;101024.72;6145683;23;20206;-80
2023/01/24 14:11:09;;;;;;;20.40;14.17;;;;;;;3.04;100.00;101026.38;6207899;23;20253;-82
2023/01/24 14:13:56;;;;;;;20.73;14.57;;;;;;;3.00;100.00;101032.94;6162207;23;20197;-82
2023/01/24 14:16:37;;;;;;;17.97;13.53;;;;;;;3.07;100.00;101035.88;6188038;23;20230;-81
2023/01/24 14:19:12;;;;;;;20.03;14.73;;;;;;;3.05;100.00;101032.53;6185551;23;20194;-81
2023/01/24 14:22:04;;;;;;;19.97;14.13;;;;;;;3.09;100.00;101037.41;6211264;23;20206;-82
2023/01/24 14:24:36;;;;;;;22.10;14.53;;;;;;;3.00;100.00;101037.38;6186626;23;20192;-81